Latest Weather Observations for Ivanhoe Airport

IDN60801

Issued at 10:22 pm EST Wednesday 12 August 2020 (issued every 10 minutes, with the page automatically refreshed every 10 minutes)

About weather observations | Map of weather stations | Latest weather observations for NSW | Other Formats
Station Details ID: 049000 Name: IVANHOE AERODROME AWS Lat: -32.88 Lon: 144.31 Height: 100.0 m
Data from the previous 72 hours. | See also: Recent months at Ivanhoe Airport
Date/Time
EST
Temp
°C
App
Temp
°C
Dew
Point
°C
Rel
Hum
%
Delta-T
°C
Wind Press
QNH
hPa
Press
MSL
hPa
Rain since
9am
mm
Dir  Spd
km/h
Gust
km/h
Spd
kts
Gust
kts
12/10:00pm 13.2 10.9 10.4 83 1.5 N 13 15 7 8 1011.5 1011.5 0.0
12/09:30pm 13.5 11.5 10.3 81 1.7 N 11 13 6 7 1011.5 1011.5 0.0
12/09:00pm 13.9 12.3 10.1 78 2.0 N 9 11 5 6 1011.2 1011.2 0.0
12/08:30pm 14.4 12.3 9.6 73 2.5 N 11 13 6 7 1011.0 1011.0 0.0
12/08:00pm 14.8 13.0 9.4 70 2.8 NNW 9 11 5 6 1010.6 1010.6 0.0
12/07:30pm 15.5 13.4 9.6 68 3.1 N 11 13 6 7 1010.2 1010.2 0.0
12/07:00pm 16.2 14.8 9.6 65 3.5 N 7 9 4 5 1009.8 1009.8 0.0
12/06:30pm 17.2 15.4 9.6 61 4.0 NNW 9 11 5 6 1009.6 1009.6 0.0
12/06:00pm 17.7 15.9 9.6 59 4.3 NW 9 11 5 6 1009.2 1009.2 0.0
12/05:30pm 18.3 15.6 9.1 55 4.8 WNW 13 19 7 10 1008.8 1008.8 0.0
12/05:00pm 18.8 14.9 8.7 52 5.3 WNW 19 24 10 13 1008.5 1008.5 0.0
12/04:30pm 19.8 15.9 8.8 49 5.8 NW 19 24 10 13 1008.1 1008.1 0.0
12/04:00pm 20.1 16.5 9.7 51 5.6 NW 19 26 10 14 1008.2 1008.2 0.0
12/03:30pm 19.8 15.7 8.5 48 5.9 NW 20 33 11 18 1008.1 1008.1 0.0
12/03:00pm 20.1 15.2 8.4 47 6.1 NW 24 33 13 18 1008.0 1008.0 0.0
12/02:30pm 20.0 14.1 7.7 45 6.3 NW 28 35 15 19 1008.0 1008.0 0.0
12/02:00pm 20.8 16.8 9.1 47 6.2 NNW 20 33 11 18 1008.2 1008.2 0.0
12/01:30pm 19.6 14.9 9.2 51 5.5 NNW 24 33 13 18 1008.2 1008.2 0.0
12/01:00pm 20.1 16.3 9.7 51 5.6 NNW 20 28 11 15 1008.7 1008.7 0.0
12/12:30pm 19.5 16.2 9.4 52 5.4 NNW 17 24 9 13 1009.2 1009.2 0.0
12/12:00pm 19.1 15.2 9.3 53 5.2 NNW 20 32 11 17 1009.5 1009.5 0.0
12/11:30am 18.5 14.4 10.1 58 4.5 NNW 22 28 12 15 1009.9 1009.9 0.0
12/11:00am 18.0 14.3 9.6 58 4.4 N 19 28 10 15 1010.4 1010.4 0.0
12/10:30am 16.8 13.1 9.5 62 3.8 N 19 26 10 14 1010.8 1010.8 0.0
12/10:00am 15.9 13.1 10.0 68 3.1 NNE 15 22 8 12 1011.0 1011.0 0.0
12/09:30am 14.1 10.8 9.5 74 2.4 NNE 17 22 9 12 1011.2 1011.2 0.0
12/09:00am 13.9 10.5 9.1 73 2.5 NE 17 20 9 11 1011.2 1011.2 0.0
12/08:30am 12.8 9.8 9.3 79 1.8 NE 15 19 8 10 1011.3 1011.3 0.0
12/08:00am 11.8 9.2 9.5 86 1.2 NE 13 17 7 9 1011.4 1011.4 0.0
12/07:30am 11.4 8.7 9.1 86 1.2 NNE 13 15 7 8 1011.4 1011.4 0.0
12/07:00am 11.2 8.5 9.1 87 1.1 NE 13 15 7 8 1011.3 1011.3 0.0
12/06:30am 11.5 8.8 8.9 84 1.3 NNE 13 15 7 8 1011.4 1011.4 0.0
12/06:00am 11.3 9.0 8.9 85 1.2 NNE 11 13 6 7 1011.3 1011.3 0.0
12/05:30am 11.6 8.4 8.5 81 1.5 NNE 15 17 8 9 1011.2 1011.2 0.0
12/05:00am 11.4 8.6 8.4 82 1.5 NNE 13 19 7 10 1011.2 1011.2 0.0
12/04:30am 11.2 8.7 8.4 83 1.4 NNE 11 15 6 8 1011.3 1011.3 0.0
12/04:00am 11.4 8.2 8.3 81 1.5 NNE 15 19 8 10 1011.2 1011.2 0.0
12/03:30am 11.3 8.4 8.3 82 1.5 NE 13 17 7 9 1011.3 1011.3 0.0
12/03:00am 11.4 8.2 8.3 81 1.5 NE 15 17 8 9 1011.3 1011.3 0.0
12/02:30am 11.3 8.4 8.2 81 1.5 NE 13 17 7 9 1011.7 1011.7 0.0
12/02:00am 11.4 8.5 8.3 81 1.5 NE 13 15 7 8 1012.1 1012.1 0.0
12/01:30am 11.7 8.4 8.2 79 1.7 NE 15 17 8 9 1012.4 1012.4 0.0
12/01:00am 12.0 9.1 8.3 78 1.8 NNE 13 19 7 10 1012.8 1012.9 0.0
12/12:30am 12.0 8.4 8.3 78 1.8 NE 17 20 9 11 1012.9 1013.0 0.0
12/12:00am 12.3 9.0 8.2 76 2.0 NE 15 19 8 10 1013.2 1013.3 0.0
 
Date/Time
EST
Temp
°C
App
Temp
°C
Dew
Point
°C
Rel
Hum
%
Delta-T
°C
Wind Press
QNH
hPa
Press
MSL
hPa
Rain since
9am
mm
Dir  Spd
km/h
Gust
km/h
Spd
kts
Gust
kts
11/11:30pm 12.2 9.3 8.1 76 2.0 NE 13 19 7 10 1013.2 1013.3 0.0
11/11:00pm 12.4 9.1 8.1 75 2.1 NE 15 19 8 10 1013.4 1013.5 0.0
11/10:30pm 12.2 8.6 8.3 77 1.9 NE 17 19 9 10 1013.7 1013.8 0.0
11/10:00pm 12.1 8.9 8.4 78 1.8 NE 15 20 8 11 1013.8 1013.9 0.0
11/09:30pm 12.2 9.4 8.5 78 1.8 NE 13 17 7 9 1014.1 1014.2 0.0
11/09:00pm 12.3 9.6 8.8 79 1.8 NE 13 15 7 8 1014.1 1014.2 0.0
11/08:30pm 12.6 9.9 8.9 78 1.9 NE 13 17 7 9 1014.1 1014.2 0.0
11/08:00pm 13.0 9.9 8.9 76 2.1 NE 15 19 8 10 1014.0 1014.1 0.0
11/07:30pm 13.2 10.6 9.5 78 1.9 ENE 13 19 7 10 1013.9 1014.0 0.0
11/07:00pm 13.0 10.9 9.8 81 1.6 ENE 11 13 6 7 1014.0 1014.1 0.0
11/06:30pm 13.1 11.4 9.7 80 1.7 NE 9 11 5 6 1014.2 1014.3 0.0
11/06:00pm 13.7 11.6 9.7 77 2.1 NE 11 13 6 7 1014.0 1014.1 0.0
11/05:30pm 14.3 11.4 9.5 73 2.5 NE 15 20 8 11 1013.5 1013.6 0.0
11/05:00pm 14.8 11.5 9.4 70 2.8 NE 17 22 9 12 1013.2 1013.3 0.0
11/04:30pm 15.0 12.0 9.4 69 2.9 NE 15 19 8 10 1013.0 1013.1 0.0
11/04:00pm 15.0 11.6 9.1 68 3.0 NE 17 22 9 12 1013.4 1013.5 0.0
11/03:30pm 15.3 11.5 9.0 66 3.2 NE 19 24 10 13 1013.6 1013.7 0.0
11/03:00pm 15.3 11.9 9.0 66 3.2 NNE 17 24 9 13 1014.2 1014.3 0.0
11/02:30pm 15.4 12.0 9.3 67 3.2 NNE 17 24 9 13 1014.9 1015.0 0.0
11/02:00pm 14.8 12.2 9.4 70 2.8 NNE 13 19 7 10 1015.0 1015.1 0.0
11/01:30pm 14.5 11.8 9.1 70 2.8 N 13 17 7 9 1015.6 1015.7 0.0
11/01:00pm 14.2 11.6 9.2 72 2.6 N 13 17 7 9 1016.0 1016.1 0.0
11/12:30pm 14.2 11.1 8.8 70 2.7 N 15 22 8 12 1016.6 1016.6 0.0
11/12:00pm 14.0 9.9 8.6 70 2.7 N 20 26 11 14 1016.9 1016.9 0.0
11/11:30am 14.5 10.1 8.9 69 2.9 N 22 30 12 16 1017.3 1017.3 0.0
11/11:00am 13.7 9.7 8.3 70 2.7 N 19 24 10 13 1017.9 1017.9 0.0
11/10:30am 13.7 10.1 8.3 70 2.7 NNE 17 24 9 13 1018.1 1018.1 0.0
11/10:00am 11.6 8.3 7.9 78 1.8 NNE 15 17 8 9 1018.1 1018.1 0.0
11/09:30am 10.4 7.3 7.1 80 1.6 NE 13 17 7 9 1018.0 1018.0 0.0
11/09:00am 9.9 6.3 6.8 81 1.5 NE 15 20 8 11 1018.4 1018.4 0.2
11/08:30am 9.3 5.2 6.4 82 1.3 NE 17 22 9 12 1018.7 1018.7 0.2
11/08:00am 7.8 4.9 6.7 93 0.5 NNE 11 13 6 7 1018.8 1018.8 0.2
11/07:30am 6.9 3.8 5.7 92 0.5 NE 11 13 6 7 1018.4 1018.4 0.2
11/07:00am 7.0 3.6 5.9 93 0.5 ENE 13 15 7 8 1018.2 1018.2 0.2
11/06:30am 6.7 3.3 5.8 94 0.4 ENE 13 15 7 8 1018.0 1018.0 0.2
11/06:00am 6.8 4.1 5.4 91 0.6 NE 9 13 5 7 1018.3 1018.3 0.2
11/05:30am 7.3 3.5 5.9 91 0.6 ENE 15 19 8 10 1017.9 1017.9 0.2
11/05:00am 7.1 3.8 6.2 94 0.4 ENE 13 15 7 8 1018.1 1018.1 0.2
11/04:30am 6.8 3.7 5.7 93 0.5 NE 11 13 6 7 1018.0 1018.0 0.2
11/04:00am 7.0 4.0 5.9 93 0.5 NE 11 13 6 7 1018.0 1018.0 0.2
11/03:30am 7.3 3.6 6.2 93 0.5 ENE 15 17 8 9 1018.0 1018.0 0.2
11/03:00am 6.9 3.5 5.7 92 0.5 ENE 13 13 7 7 1018.3 1018.3 0.2
11/02:30am 7.3 3.9 5.8 90 0.7 ENE 13 15 7 8 1018.7 1018.7 0.2
11/02:00am 7.5 4.1 5.8 89 0.8 ENE 13 15 7 8 1019.0 1019.0 0.2
11/01:30am 7.7 4.3 5.7 87 0.9 ENE 13 15 7 8 1019.2 1019.2 0.2
11/01:00am 8.1 5.0 5.7 85 1.1 ENE 11 13 6 7 1019.3 1019.3 0.2
11/12:30am 8.5 5.5 6.1 85 1.1 ENE 11 13 6 7 1019.5 1019.5 0.2
11/12:00am 8.5 5.9 6.0 84 1.1 NE 9 11 5 6 1019.6 1019.6 0.2
 
Date/Time
EST
Temp
°C
App
Temp
°C
Dew
Point
°C
Rel
Hum
%
Delta-T
°C
Wind Press
QNH
hPa
Press
MSL
hPa
Rain since
9am
mm
Dir  Spd
km/h
Gust
km/h
Spd
kts
Gust
kts
10/11:30pm 8.9 5.5 6.0 82 1.3 E 13 17 7 9 1019.5 1019.5 0.2
10/11:00pm 9.6 6.6 6.0 78 1.7 E 11 13 6 7 1019.6 1019.6 0.2
10/10:30pm 9.9 6.5 5.9 76 1.8 E 13 15 7 8 1019.8 1019.8 0.2
10/10:00pm 10.3 6.9 6.1 75 2.0 E 13 13 7 7 1019.8 1019.8 0.2
10/09:30pm 10.6 7.3 6.4 75 2.0 E 13 15 7 8 1019.9 1019.9 0.2
10/09:00pm 10.8 7.9 6.4 74 2.1 E 11 13 6 7 1020.2 1020.2 0.2
10/08:30pm 11.4 8.5 6.3 71 2.4 ESE 11 13 6 7 1020.0 1020.0 0.2
10/08:00pm 12.0 9.5 6.5 69 2.6 ESE 9 11 5 6 1020.0 1020.0 0.2
10/07:30pm 11.6 10.8 6.3 70 2.5 CALM 0 0 0 0 1019.9 1019.9 0.2
10/07:00pm 12.0 11.1 5.9 66 2.9 CALM 0 0 0 0 1019.7 1019.7 0.2
10/06:30pm 12.8 11.2 6.4 65 3.1 SE 4 6 2 3 1019.4 1019.4 0.2
10/06:00pm 14.1 12.1 6.2 59 3.8 ESE 6 7 3 4 1019.0 1019.0 0.2
10/05:30pm 15.8 13.2 6.3 53 4.6 SE 9 13 5 7 1018.7 1018.7 0.2
10/05:00pm 16.9 13.9 5.8 48 5.4 SE 11 17 6 9 1018.5 1018.5 0.2
10/04:30pm 17.2 13.4 5.8 47 5.6 SE 15 20 8 11 1018.3 1018.3 0.2
10/04:00pm 17.3 13.4 5.3 45 5.8 SE 15 22 8 12 1018.3 1018.3 0.2
10/03:30pm 17.6 15.0 5.9 46 5.7 SE 9 17 5 9 1018.6 1018.6 0.2
10/03:00pm 17.3 13.8 5.3 45 5.8 SSE 13 17 7 9 1019.1 1019.1 0.2
10/02:30pm 17.2 14.4 5.2 45 5.8 SE 9 15 5 8 1019.3 1019.3 0.2
10/02:00pm 17.0 13.5 5.3 46 5.6 SSE 13 19 7 10 1019.3 1019.3 0.2
10/01:30pm 16.6 14.1 6.7 52 4.9 E 9 17 5 9 1019.3 1019.3 0.2
10/01:00pm 16.5 13.8 7.4 55 4.6 E 11 17 6 9 1019.8 1019.8 0.2
10/12:30pm 15.8 12.9 6.5 54 4.6 ENE 11 19 6 10 1020.4 1020.4 0.2
10/12:00pm 14.8 11.7 7.1 60 3.8 E 13 19 7 10 1020.4 1020.4 0.2
10/11:30am 14.0 10.9 7.3 64 3.3 ESE 13 19 7 10 1020.9 1020.9 0.2
10/11:00am 12.9 10.1 6.9 67 2.9 SE 11 17 6 9 1021.1 1021.1 0.0
10/10:30am 11.7 9.6 6.8 72 2.3 SE 7 9 4 5 1021.3 1021.4 0.0
10/10:00am 10.4 7.9 6.4 76 1.9 SSE 9 13 5 7 1021.2 1021.3 0.0
10/09:30am 9.1 6.3 6.9 86 1.0 S 11 15 6 8 1021.1 1021.1 0.0
10/09:00am 7.9 4.9 7.8 99 0.0 SSW 13 17 7 9 1020.8 1020.8 0.0
10/08:30am 6.4 3.1 6.3 99 0.0 SSW 13 17 7 9 1020.5 1020.5 0.0
10/08:00am 5.5 2.0 5.4 99 0.0 SW 13 15 7 8 1020.3 1020.3 0.0
10/07:30am 4.9 1.6 4.8 99 0.0 SW 11 13 6 7 1019.8 1019.8 0.0
10/07:00am 4.8 1.5 4.7 99 0.0 SW 11 15 6 8 1019.6 1019.6 0.0
10/06:30am 5.0 1.8 4.9 99 0.0 SW 11 13 6 7 1019.3 1019.3 0.0
10/06:00am 5.5 2.0 5.4 99 0.0 SW 13 15 7 8 1018.9 1018.9 0.0
10/05:30am 5.8 2.7 5.7 99 0.0 SW 11 15 6 8 1018.6 1018.6 0.0
10/05:00am 5.9 2.9 5.8 99 0.0 SW 11 17 6 9 1018.5 1018.5 0.0
10/04:30am 6.0 3.0 5.9 99 0.0 SW 11 15 6 8 1018.3 1018.3 0.0
10/04:00am 6.4 3.8 6.3 99 0.0 SW 9 13 5 7 1018.1 1018.1 0.0
10/03:30am 7.0 3.8 6.9 99 0.0 SW 13 17 7 9 1018.1 1018.1 0.0
10/03:00am 7.3 3.8 7.2 99 0.0 SW 15 20 8 11 1017.9 1017.9 0.0
10/02:30am 7.9 4.2 7.8 99 0.0 SW 17 22 9 12 1017.8 1017.8 0.0
10/02:00am 8.2 4.5 8.1 99 0.0 WSW 17 22 9 12 1017.6 1017.6 0.0
10/01:30am 8.4 4.8 8.3 99 0.0 WSW 17 22 9 12 1017.5 1017.5 0.0
10/01:00am 8.8 5.3 8.7 99 0.0 WSW 17 22 9 12 1017.5 1017.5 0.0
10/12:30am 9.0 5.8 8.6 97 0.2 WSW 15 22 8 12 1017.5 1017.5 0.0
10/12:00am 9.2 6.0 8.4 95 0.4 WSW 15 22 8 12 1017.5 1017.5 0.0
 
Date/Time
EST
Temp
°C
App
Temp
°C
Dew
Point
°C
Rel
Hum
%
Delta-T
°C
Wind Press
QNH
hPa
Press
MSL
hPa
Rain since
9am
mm
Dir  Spd
km/h
Gust
km/h
Spd
kts
Gust
kts
09/11:30pm 9.4 5.8 8.3 93 0.5 WSW 17 22 9 12 1017.7 1017.7 0.0
09/11:00pm 9.7 6.5 8.3 91 0.7 WSW 15 20 8 11 1017.8 1017.8 0.0
09/10:30pm 10.0 6.7 8.1 88 0.9 WSW 15 20 8 11 1017.7 1017.7 0.0

Other formats

Comma delimited format used in spreadsheet applications
http://www.bom.gov.au/fwo/IDN60801/IDN60801.95697.axf

JavaScript Object Notation format (JSON) in row-major order
http://www.bom.gov.au/fwo/IDN60801/IDN60801.95697.json

Data quality

Most of these data are generated automatically and are frequently updated. Quality checks on data are not normally performed. It is possible for incorrect values to appear. Refer to information at About Latest Weather Observations and please check the disclaimer before using these data.